Terminal Aerodrome Forecast
Issued by NWS

Home | Current Version | Previous Version | Graphics & Text | Print | Product List | Glossary On
Versions: 1 2 3 4 5 6 7 8 9 10 11 12 13 14 15 16 17 18 19 20 21 22 23 24 25
000
FTUS43 KMPX 282339
TAFAXN
TAF
KAXN 282339Z 2900/2924 16007KT 1SM BR OVC002
     FM290200 33009KT 1SM BR OVC002
     FM290400 32014G22KT 3SM BR OVC007
     FM290800 33022G30KT P6SM OVC015
     FM291600 33020G26KT P6SM BKN022
     FM292000 32015G23KT P6SM SCT025=

USA.gov is the U.S. government's official web portal to all federal, state and local government web resources and services.